createdAt,value
2023-05-15T00:00:50.966Z,68.0769
2023-05-15T00:01:52.071Z,67.2308
2023-05-15T00:02:53.229Z,66.1538
2023-05-15T00:03:54.343Z,66.4615
2023-05-15T00:04:55.434Z,64.3077
2023-05-15T00:05:56.474Z,67.6923
2023-05-15T00:06:57.621Z,65.4615
2023-05-15T00:07:58.684Z,66.2308
2023-05-15T00:08:59.794Z,68.4615
2023-05-15T00:10:00.892Z,62.3846
2023-05-15T00:11:02.361Z,64.3846
2023-05-15T00:12:03.099Z,71.5385
2023-05-15T00:13:04.191Z,69.3077
2023-05-15T00:14:05.324Z,68.0769
2023-05-15T00:15:06.426Z,66.5385
2023-05-15T00:16:07.537Z,62.0000
2023-05-15T00:17:08.704Z,66.8462
2023-05-15T00:18:09.775Z,66.7692
2023-05-15T00:19:10.941Z,68.7692
2023-05-15T00:20:11.928Z,66.0769
2023-05-15T00:21:13.037Z,69.0000
2023-05-15T00:22:14.173Z,69.0769
2023-05-15T00:23:15.355Z,73.6154
2023-05-15T00:24:16.341Z,66.2308
2023-05-15T00:25:17.451Z,65.5385
2023-05-15T00:26:18.561Z,64.5385
2023-05-15T00:27:19.684Z,65.2308
2023-05-15T00:28:20.805Z,68.7692
2023-05-15T00:29:21.895Z,71.6154
2023-05-15T00:30:22.980Z,68.7692
2023-05-15T00:31:24.096Z,70.3846
2023-05-15T00:32:25.214Z,69.5385
2023-05-15T00:33:26.295Z,67.3077
2023-05-15T00:34:27.401Z,69.8462
2023-05-15T00:35:28.522Z,65.7692
2023-05-15T00:36:29.631Z,61.3846
2023-05-15T00:37:30.720Z,67.9231
2023-05-15T00:38:31.827Z,62.7692
2023-05-15T00:39:32.914Z,66.4615
2023-05-15T00:40:34.033Z,63.1538
2023-05-15T00:41:35.153Z,67.0000
2023-05-15T00:42:36.266Z,65.3846
2023-05-15T00:43:37.336Z,66.3077
2023-05-15T00:44:38.445Z,65.4615
2023-05-15T00:45:39.558Z,61.3077
2023-05-15T00:46:40.684Z,64.3846
2023-05-15T00:47:41.832Z,67.8462
2023-05-15T00:48:42.865Z,64.1538
2023-05-15T00:49:43.960Z,68.4615
2023-05-15T00:50:45.058Z,68.9231
2023-05-15T00:51:46.187Z,62.3846
2023-05-15T00:52:47.289Z,64.3846
2023-05-15T00:53:48.417Z,68.3846
2023-05-15T00:54:49.501Z,65.6154
2023-05-15T00:55:50.585Z,67.6923
2023-05-15T00:56:51.680Z,67.6923
2023-05-15T00:57:52.788Z,60.1538
2023-05-15T00:58:53.912Z,59.8462
2023-05-15T00:59:54.992Z,65.3846
2023-05-15T01:00:56.089Z,63.8462
2023-05-15T01:01:57.222Z,59.3846
2023-05-15T01:02:58.464Z,61.5385
2023-05-15T01:03:59.397Z,66.0769
2023-05-15T01:05:00.494Z,68.6923
2023-05-15T01:06:01.603Z,65.9231
2023-05-15T01:07:02.681Z,64.6923
2023-05-15T01:08:03.822Z,68.6923
2023-05-15T01:09:04.904Z,71.0769
2023-05-15T01:10:06.011Z,67.4615
2023-05-15T01:11:07.107Z,69.9231
2023-05-15T01:12:08.186Z,66.9231
2023-05-15T01:13:09.319Z,66.1538
2023-05-15T01:14:10.405Z,64.7692
2023-05-15T01:15:11.505Z,65.5385
2023-05-15T01:16:12.627Z,65.3846
2023-05-15T01:17:13.717Z,62.9231
2023-05-15T01:18:14.911Z,62.3846
2023-05-15T01:19:15.989Z,64.4615
2023-05-15T01:20:17.017Z,63.9231
2023-05-15T01:21:18.103Z,60.3846
2023-05-15T01:22:19.204Z,67.7692
2023-05-15T01:23:20.301Z,63.2308
2023-05-15T01:24:21.396Z,62.1538
2023-05-15T01:25:22.740Z,63.0000
2023-05-15T01:26:23.610Z,62.9231
2023-05-15T01:27:24.696Z,62.5385
2023-05-15T01:28:25.833Z,63.4615
2023-05-15T01:29:26.935Z,58.6923
2023-05-15T01:30:28.038Z,64.3077
2023-05-15T01:31:29.177Z,68.6154
2023-05-15T01:32:30.303Z,66.2308
2023-05-15T01:33:31.345Z,69.3077
2023-05-15T01:34:32.452Z,68.3077
2023-05-15T01:35:33.563Z,67.4615
2023-05-15T01:36:34.644Z,66.1538
2023-05-15T01:37:35.758Z,63.0000
2023-05-15T01:38:36.888Z,63.6154
2023-05-15T01:39:37.954Z,62.1538
2023-05-15T01:40:39.063Z,61.3846
2023-05-15T01:41:40.148Z,63.3077
2023-05-15T01:42:41.264Z,67.1538
2023-05-15T01:43:42.365Z,63.6923
2023-05-15T01:44:43.470Z,67.6923
2023-05-15T01:45:44.582Z,61.5385
2023-05-15T01:46:45.878Z,58.4615
2023-05-15T01:47:46.820Z,61.2308
2023-05-15T01:48:47.893Z,62.6154
2023-05-15T01:49:48.985Z,59.3846
2023-05-15T01:50:50.087Z,62.3077
2023-05-15T01:51:51.196Z,62.7692
2023-05-15T01:52:52.281Z,64.6154
2023-05-15T01:53:53.442Z,63.1538
2023-05-15T01:54:54.501Z,63.8462
2023-05-15T01:55:55.631Z,59.3077
2023-05-15T01:56:56.736Z,62.3846
2023-05-15T01:57:57.821Z,70.2308
2023-05-15T01:58:58.913Z,68.4615
2023-05-15T02:00:00.038Z,66.6154
2023-05-15T02:01:01.126Z,70.8462
2023-05-15T02:02:02.315Z,66.5385
2023-05-15T02:03:03.451Z,64.6923
2023-05-15T02:04:04.533Z,68.3846
2023-05-15T02:05:05.562Z,73.5385
2023-05-15T02:06:14.967Z,69.9231
2023-05-15T02:07:07.763Z,66.9167
2023-05-15T02:08:08.855Z,63.3077
2023-05-15T02:09:09.989Z,63.9231
2023-05-15T02:10:11.060Z,67.0769
2023-05-15T02:11:12.155Z,68.5385
2023-05-15T02:12:13.284Z,68.1538
2023-05-15T02:13:14.381Z,70.1538
2023-05-15T02:14:15.478Z,71.9231
2023-05-15T02:15:16.603Z,72.1538
2023-05-15T02:16:17.714Z,68.5385
2023-05-15T02:17:18.787Z,65.7692
2023-05-15T02:18:19.866Z,68.4615
2023-05-15T02:19:20.974Z,65.4615
2023-05-15T02:20:22.089Z,70.2308
2023-05-15T02:21:23.184Z,68.0000
2023-05-15T02:22:24.289Z,66.0769
2023-05-15T02:23:25.381Z,69.9231
2023-05-15T02:24:26.475Z,67.7692
2023-05-15T02:25:27.593Z,67.5385
2023-05-15T02:26:28.700Z,69.2308
2023-05-15T02:27:29.795Z,66.9231
2023-05-15T02:28:30.894Z,65.8462
2023-05-15T02:29:32.015Z,68.0000
2023-05-15T02:30:33.111Z,67.5385
2023-05-15T02:31:34.221Z,71.2308
2023-05-15T02:32:35.328Z,68.3846
2023-05-15T02:33:36.390Z,69.7692
2023-05-15T02:34:37.489Z,74.0000
2023-05-15T02:35:38.592Z,69.1538
2023-05-15T02:36:39.709Z,71.2308
2023-05-15T02:37:40.807Z,66.0000
2023-05-15T02:38:41.893Z,70.6923
2023-05-15T02:39:43.009Z,74.0769
2023-05-15T02:40:44.118Z,77.0769
2023-05-15T02:41:45.217Z,74.0769
2023-05-15T02:42:46.325Z,74.2308
2023-05-15T02:43:47.402Z,71.1538
2023-05-15T02:44:48.567Z,71.8462
2023-05-15T02:45:49.668Z,70.3846
2023-05-15T02:46:50.807Z,70.4615
2023-05-15T02:47:51.968Z,70.5385
2023-05-15T02:48:53.004Z,68.6923
2023-05-15T02:49:54.097Z,72.3846
2023-05-15T02:50:55.187Z,71.1538
2023-05-15T02:51:56.304Z,73.0000
2023-05-15T02:52:57.400Z,71.8462
2023-05-15T02:53:58.513Z,68.3077
2023-05-15T02:54:59.630Z,68.1538
2023-05-15T02:56:00.711Z,69.6154
2023-05-15T02:57:01.801Z,69.6154
2023-05-15T02:58:02.941Z,70.2308
2023-05-15T02:59:04.103Z,73.4615
2023-05-15T03:00:05.123Z,72.3846
2023-05-15T03:01:06.275Z,70.4615
2023-05-15T03:02:07.282Z,72.6154
2023-05-15T03:03:08.410Z,72.8462
2023-05-15T03:04:09.534Z,71.3077
2023-05-15T03:05:10.605Z,69.4615
2023-05-15T03:06:11.683Z,75.8462
2023-05-15T03:07:12.782Z,72.5385
2023-05-15T03:08:13.868Z,72.3077
2023-05-15T03:09:15.004Z,72.9231
2023-05-15T03:10:16.113Z,78.8462
2023-05-15T03:11:17.177Z,73.3077
2023-05-15T03:12:18.267Z,71.6154
2023-05-15T03:13:19.380Z,70.4615
2023-05-15T03:14:20.471Z,73.8462
2023-05-15T03:15:21.580Z,74.5385
2023-05-15T03:16:22.735Z,71.3846
2023-05-15T03:17:23.776Z,72.6923
2023-05-15T03:18:24.847Z,72.9231
2023-05-15T03:19:25.957Z,75.8462
2023-05-15T03:20:27.075Z,77.7692
2023-05-15T03:21:28.170Z,74.7692
2023-05-15T03:22:29.239Z,74.1538
2023-05-15T03:23:30.349Z,68.6923
2023-05-15T03:24:31.451Z,74.9231
2023-05-15T03:25:32.545Z,75.0000
2023-05-15T03:26:33.655Z,75.2308
2023-05-15T03:27:34.712Z,75.9231
2023-05-15T03:28:35.828Z,69.3846
2023-05-15T03:29:36.917Z,76.2308
2023-05-15T03:30:38.034Z,70.6923
2023-05-15T03:31:39.192Z,67.6923
2023-05-15T03:32:40.241Z,69.4615
2023-05-15T03:33:41.319Z,71.7692
2023-05-15T03:34:42.423Z,68.3077
2023-05-15T03:35:43.527Z,70.3077
2023-05-15T03:36:44.628Z,71.8462
2023-05-15T03:37:45.710Z,75.5385
2023-05-15T03:38:46.819Z,70.2308
2023-05-15T03:39:47.918Z,65.3077
2023-05-15T03:40:50.983Z,65.7692
2023-05-15T03:41:50.107Z,68.8462
2023-05-15T03:42:51.229Z,65.2308
2023-05-15T03:43:52.459Z,69.1538
2023-05-15T03:44:53.429Z,67.8462
2023-05-15T03:45:54.540Z,71.4615
2023-05-15T03:46:55.702Z,65.9231
2023-05-15T03:47:56.728Z,66.1538
2023-05-15T03:48:57.820Z,69.4615
2023-05-15T03:49:58.907Z,71.0000
2023-05-15T03:51:00.019Z,67.3077
2023-05-15T03:52:01.110Z,72.3077
2023-05-15T03:53:02.221Z,70.8462
2023-05-15T03:54:03.319Z,72.8462
2023-05-15T03:55:04.408Z,70.0769
2023-05-15T03:56:05.508Z,68.0769
2023-05-15T03:57:06.598Z,68.0000
2023-05-15T03:58:07.704Z,65.0000
2023-05-15T03:59:08.806Z,67.3077
2023-05-15T04:00:09.931Z,68.0000
2023-05-15T04:01:11.035Z,61.9231
2023-05-15T04:02:12.123Z,61.1538
2023-05-15T04:03:13.323Z,64.2308
2023-05-15T04:04:14.304Z,66.4615
2023-05-15T04:05:15.434Z,59.6154
2023-05-15T04:06:16.522Z,65.3077
2023-05-15T04:07:17.594Z,68.3077
2023-05-15T04:08:18.698Z,66.9231
2023-05-15T04:09:19.788Z,63.3846
2023-05-15T04:10:20.904Z,60.0769
2023-05-15T04:11:22.042Z,60.8462
2023-05-15T04:12:23.119Z,62.8462
2023-05-15T04:13:24.191Z,62.6154
2023-05-15T04:14:25.294Z,64.6154
2023-05-15T04:15:26.687Z,64.2308
2023-05-15T04:16:27.547Z,59.4615
2023-05-15T04:17:28.614Z,65.3077
2023-05-15T04:18:29.723Z,65.9231
2023-05-15T04:19:30.795Z,63.6923
2023-05-15T04:20:31.893Z,58.6923
2023-05-15T04:21:33.005Z,62.7692
2023-05-15T04:22:34.099Z,62.4615
2023-05-15T04:23:35.182Z,59.6923
2023-05-15T04:24:36.278Z,65.6923
2023-05-15T04:25:37.390Z,62.6923
2023-05-15T04:26:38.577Z,62.7692
2023-05-15T04:27:39.613Z,62.3077
2023-05-15T04:28:46.673Z,58.7692
2023-05-15T04:29:42.793Z,62.5385
2023-05-15T04:30:42.889Z,62.3846
2023-05-15T04:31:44.063Z,60.2308
2023-05-15T04:32:45.131Z,55.6923
2023-05-15T04:33:46.211Z,60.3077
2023-05-15T04:34:47.287Z,60.3077
2023-05-15T04:35:48.397Z,57.3846
2023-05-15T04:36:49.506Z,61.3077
2023-05-15T04:37:50.602Z,58.1538
2023-05-15T04:38:51.725Z,64.6923
2023-05-15T04:39:52.787Z,63.1538
2023-05-15T04:40:53.925Z,62.1538
2023-05-15T04:41:54.991Z,58.9231
2023-05-15T04:42:56.097Z,58.3846
2023-05-15T04:43:57.191Z,61.3846
2023-05-15T04:44:58.313Z,59.6923
2023-05-15T04:45:59.429Z,57.0000
2023-05-15T04:47:00.487Z,59.8462
2023-05-15T04:48:01.647Z,58.6154
2023-05-15T04:49:02.704Z,55.3077
2023-05-15T04:50:03.847Z,56.6923
2023-05-15T04:51:04.918Z,52.6154
2023-05-15T04:52:05.980Z,53.1538
2023-05-15T04:53:07.072Z,52.3077
2023-05-15T04:54:08.188Z,59.7692
2023-05-15T04:55:09.275Z,59.9231
2023-05-15T04:56:10.392Z,56.4615
2023-05-15T04:57:11.492Z,59.9231
2023-05-15T04:58:12.587Z,56.3846
2023-05-15T04:59:13.704Z,55.6923
2023-05-15T05:00:14.780Z,58.9231
2023-05-15T05:01:15.909Z,57.3077
2023-05-15T05:02:17.001Z,54.3077
2023-05-15T05:03:18.143Z,56.2308
2023-05-15T05:04:19.184Z,57.0000
2023-05-15T05:05:20.289Z,55.0769
2023-05-15T05:06:21.401Z,57.3077
2023-05-15T05:07:22.510Z,63.3077
2023-05-15T05:08:23.634Z,63.8462
2023-05-15T05:09:24.704Z,59.9231
2023-05-15T05:10:25.813Z,58.7692
2023-05-15T05:11:26.898Z,58.0000
2023-05-15T05:12:28.208Z,59.5385
2023-05-15T05:13:29.116Z,61.2308
2023-05-15T05:14:30.213Z,59.7692
2023-05-15T05:15:31.305Z,61.2308
2023-05-15T05:16:32.469Z,59.5385
2023-05-15T05:17:33.576Z,61.3077
2023-05-15T05:18:34.654Z,59.6923
2023-05-15T05:19:35.735Z,66.0769
2023-05-15T05:20:36.825Z,64.0769
2023-05-15T05:21:37.926Z,62.3846
2023-05-15T05:22:39.021Z,63.6154
2023-05-15T05:23:40.137Z,62.5385
2023-05-15T05:24:41.248Z,59.0000
2023-05-15T05:25:42.344Z,60.5385
2023-05-15T05:26:43.460Z,58.9231
2023-05-15T05:27:44.562Z,63.5385
2023-05-15T05:28:45.670Z,57.1538
2023-05-15T05:29:46.763Z,60.2308
2023-05-15T05:30:47.877Z,57.4615
2023-05-15T05:31:48.990Z,53.3846
2023-05-15T05:32:50.118Z,50.1538
2023-05-15T05:33:51.197Z,63.0000
2023-05-15T05:34:52.286Z,61.3846
2023-05-15T05:35:53.414Z,59.2308
2023-05-15T05:36:54.496Z,60.5385
2023-05-15T05:37:55.620Z,64.3077
2023-05-15T05:38:56.711Z,62.7692
2023-05-15T05:39:57.849Z,61.7692
2023-05-15T05:40:58.935Z,63.5385
2023-05-15T05:42:00.039Z,66.2308
2023-05-15T05:43:01.169Z,60.1538
2023-05-15T05:44:02.243Z,57.3846
2023-05-15T05:45:03.369Z,58.9231
2023-05-15T05:46:04.440Z,60.9231
2023-05-15T05:47:05.571Z,61.7692
2023-05-15T05:48:06.689Z,62.5385
2023-05-15T05:49:07.753Z,58.3846
2023-05-15T05:50:08.871Z,58.3077
2023-05-15T05:51:09.958Z,53.9231
2023-05-15T05:52:11.067Z,53.3846
2023-05-15T05:53:12.189Z,51.6923
2023-05-15T05:54:13.316Z,56.3846
2023-05-15T05:55:14.383Z,55.6154
2023-05-15T05:56:15.488Z,58.9231
2023-05-15T05:57:16.613Z,58.5385
2023-05-15T05:58:24.956Z,62.0769
2023-05-15T05:59:19.799Z,61.9231
2023-05-15T06:00:19.912Z,57.6923
2023-05-15T06:01:21.003Z,56.1538
2023-05-15T06:02:22.109Z,55.3077
2023-05-15T06:03:23.289Z,54.9231
2023-05-15T06:04:24.347Z,57.6923
2023-05-15T06:05:25.731Z,55.1538
2023-05-15T06:06:26.528Z,55.2308
2023-05-15T06:07:27.637Z,59.9231
2023-05-15T06:08:28.786Z,64.1538
2023-05-15T06:09:29.829Z,62.9231
2023-05-15T06:10:30.937Z,62.5385
2023-05-15T06:11:32.050Z,66.2308
2023-05-15T06:12:33.186Z,67.6154
2023-05-15T06:13:34.267Z,70.5385
2023-05-15T06:14:35.364Z,65.7692
2023-05-15T06:15:36.467Z,69.8462
2023-05-15T06:16:37.643Z,62.1538
2023-05-15T06:17:38.774Z,67.6154
2023-05-15T06:18:39.812Z,71.2308
2023-05-15T06:19:40.891Z,70.3846
2023-05-15T06:20:42.000Z,71.4615
2023-05-15T06:21:43.094Z,69.7692
2023-05-15T06:22:44.194Z,68.0769
2023-05-15T06:23:45.316Z,62.6154
2023-05-15T06:24:46.397Z,66.2308
2023-05-15T06:25:47.493Z,66.4615
2023-05-15T06:26:50.350Z,72.8462
2023-05-15T06:27:49.712Z,72.1538
2023-05-15T06:28:50.801Z,70.6923
2023-05-15T06:29:51.907Z,69.0000
2023-05-15T06:30:53.106Z,66.6923
2023-05-15T06:31:54.120Z,68.0769
2023-05-15T06:32:55.263Z,69.9231
2023-05-15T06:33:56.362Z,73.6923
2023-05-15T06:34:57.441Z,72.9231
2023-05-15T06:35:58.538Z,69.2308
2023-05-15T06:36:59.632Z,69.3077
2023-05-15T06:38:00.764Z,71.7692
2023-05-15T06:39:01.870Z,69.6923
2023-05-15T06:40:03.007Z,72.2308
2023-05-15T06:41:04.050Z,75.7692
2023-05-15T06:42:05.189Z,64.7692
2023-05-15T06:43:06.279Z,69.3846
2023-05-15T06:44:07.408Z,70.5385
2023-05-15T06:45:08.479Z,70.0000
2023-05-15T06:46:09.627Z,71.1538
2023-05-15T06:47:10.808Z,74.8462
2023-05-15T06:48:11.900Z,74.0769
2023-05-15T06:49:12.982Z,70.2308
2023-05-15T06:50:14.068Z,70.8462
2023-05-15T06:51:15.182Z,71.6923
2023-05-15T06:52:16.291Z,68.7692
2023-05-15T06:53:17.391Z,72.7692
2023-05-15T06:54:18.474Z,68.0000
2023-05-15T06:55:19.600Z,66.1538
2023-05-15T06:56:20.700Z,66.3077
2023-05-15T06:57:21.801Z,66.8462
2023-05-15T06:58:22.907Z,70.8462
2023-05-15T06:59:24.003Z,68.6923
2023-05-15T07:00:25.091Z,70.7692
2023-05-15T07:01:26.273Z,73.0000
2023-05-15T07:02:27.340Z,75.9231
2023-05-15T07:03:28.512Z,73.1538
2023-05-15T07:04:29.615Z,73.0000
2023-05-15T07:05:30.596Z,69.5385
2023-05-15T07:06:31.720Z,72.7692
2023-05-15T07:07:32.866Z,71.6154
2023-05-15T07:08:33.932Z,73.6154
2023-05-15T07:09:35.035Z,70.2308
2023-05-15T07:10:36.127Z,76.0769
2023-05-15T07:11:37.225Z,80.9231
2023-05-15T07:12:38.341Z,84.3846
2023-05-15T07:13:39.441Z,80.3077
2023-05-15T07:14:40.571Z,85.4615
2023-05-15T07:15:41.630Z,87.2308
2023-05-15T07:16:42.734Z,85.3846
2023-05-15T07:17:43.912Z,84.9231
2023-05-15T07:18:45.190Z,86.3846
2023-05-15T07:19:46.079Z,87.4615
2023-05-15T07:20:47.153Z,82.0000
2023-05-15T07:21:48.260Z,82.5385
2023-05-15T07:22:56.299Z,85.3846
2023-05-15T07:23:51.481Z,87.1538
2023-05-15T07:24:51.585Z,88.0769
2023-05-15T07:25:52.667Z,82.1538
2023-05-15T07:26:58.600Z,81.0000
2023-05-15T07:27:55.890Z,82.2308
2023-05-15T07:28:56.003Z,86.6154
2023-05-15T07:29:57.108Z,86.0000
2023-05-15T07:30:58.212Z,84.6154
2023-05-15T07:31:59.402Z,84.5385
2023-05-15T07:33:00.429Z,85.7692
2023-05-15T07:34:01.505Z,86.6154
2023-05-15T07:35:02.630Z,83.4615
2023-05-15T07:36:03.749Z,85.3846
2023-05-15T07:37:04.826Z,80.4615
2023-05-15T07:38:05.988Z,77.4615
2023-05-15T07:39:07.041Z,81.8462
2023-05-15T07:40:08.126Z,82.3077
2023-05-15T07:41:09.220Z,78.8462
2023-05-15T07:42:10.345Z,77.8462
2023-05-15T07:43:11.436Z,80.0769
2023-05-15T07:44:12.543Z,78.7692
2023-05-15T07:45:13.745Z,82.6923
2023-05-15T07:46:14.812Z,82.3077
2023-05-15T07:47:15.856Z,82.0000
2023-05-15T07:48:16.963Z,76.2308
2023-05-15T07:49:18.059Z,75.6923
2023-05-15T07:50:19.170Z,79.1538
2023-05-15T07:51:20.250Z,85.1538
2023-05-15T07:52:21.356Z,83.3846
2023-05-15T07:53:22.450Z,82.0769
2023-05-15T07:54:23.562Z,84.1538
2023-05-15T07:55:24.947Z,83.6154
2023-05-15T07:56:25.774Z,85.0769
2023-05-15T07:57:26.864Z,85.0769
2023-05-15T07:58:27.944Z,83.2308
2023-05-15T07:59:29.103Z,80.8462
2023-05-15T08:00:30.157Z,75.0769
2023-05-15T08:01:32.760Z,75.5385
2023-05-15T08:02:32.519Z,81.6154
2023-05-15T08:03:33.463Z,79.4615
2023-05-15T08:04:34.613Z,77.1538
2023-05-15T08:05:35.693Z,81.9231
2023-05-15T08:06:36.761Z,82.3846
2023-05-15T08:07:37.845Z,83.0000
2023-05-15T08:08:38.969Z,85.5385
2023-05-15T08:09:40.053Z,84.6154
2023-05-15T08:10:41.155Z,83.0000
2023-05-15T08:11:42.263Z,88.8462
2023-05-15T08:12:43.371Z,87.1538
2023-05-15T08:13:44.537Z,83.1538
2023-05-15T08:14:45.644Z,83.4615
2023-05-15T08:15:46.727Z,79.4615
2023-05-15T08:16:47.784Z,79.7692
2023-05-15T08:17:48.869Z,80.3077
2023-05-15T08:18:50.028Z,82.0769
2023-05-15T08:19:51.266Z,87.2308
2023-05-15T08:20:52.222Z,81.3846
2023-05-15T08:21:53.300Z,79.0000
2023-05-15T08:22:54.408Z,79.3846
2023-05-15T08:23:55.493Z,79.4615
2023-05-15T08:24:56.589Z,80.5385
2023-05-15T08:25:57.712Z,77.3846
2023-05-15T08:26:58.805Z,81.6154
2023-05-15T08:27:59.903Z,81.3077
2023-05-15T08:29:01.050Z,86.1538
2023-05-15T08:30:02.124Z,83.3846
2023-05-15T08:31:03.273Z,79.6923
2023-05-15T08:32:04.341Z,81.5385
2023-05-15T08:33:05.468Z,81.9231
2023-05-15T08:34:06.526Z,75.0769
2023-05-15T08:35:07.677Z,76.1538
2023-05-15T08:36:08.818Z,81.7692
2023-05-15T08:37:09.845Z,82.8462
2023-05-15T08:38:10.949Z,77.7692
2023-05-15T08:39:12.061Z,81.9231
2023-05-15T08:40:13.161Z,81.3846
2023-05-15T08:41:14.286Z,78.4615
2023-05-15T08:42:15.381Z,84.3846
2023-05-15T08:43:16.484Z,80.3846
2023-05-15T08:44:17.585Z,81.1538
2023-05-15T08:45:18.696Z,86.0769
2023-05-15T08:46:19.811Z,92.2308
2023-05-15T08:47:20.907Z,85.3846
2023-05-15T08:48:22.058Z,81.2308
2023-05-15T08:49:23.107Z,85.2308
2023-05-15T08:50:24.210Z,87.2308
2023-05-15T08:51:25.329Z,80.7692
2023-05-15T08:52:26.423Z,82.6154
2023-05-15T08:53:27.547Z,82.9231
2023-05-15T08:54:28.624Z,83.7692
2023-05-15T08:55:29.739Z,88.3077
2023-05-15T08:56:30.868Z,84.1538
2023-05-15T08:57:31.945Z,87.2308
2023-05-15T08:58:33.037Z,86.0000
2023-05-15T08:59:34.171Z,87.0769
2023-05-15T09:00:35.259Z,83.9231
2023-05-15T09:01:36.400Z,87.5385
2023-05-15T09:02:37.586Z,84.0000
2023-05-15T09:03:38.763Z,79.3846
2023-05-15T09:04:39.672Z,82.1538
2023-05-15T09:05:40.762Z,89.9231
2023-05-15T09:06:41.892Z,90.6154
2023-05-15T09:07:43.001Z,88.8462
2023-05-15T09:08:44.097Z,89.3077
2023-05-15T09:09:45.195Z,88.4615
2023-05-15T09:10:46.312Z,90.6923
2023-05-15T09:11:47.409Z,88.4615
2023-05-15T09:12:48.504Z,88.4615
2023-05-15T09:13:49.604Z,92.3077
2023-05-15T09:14:50.726Z,86.6923
2023-05-15T09:15:51.816Z,91.6923
2023-05-15T09:16:52.984Z,90.0769
2023-05-15T09:17:54.062Z,90.9231
2023-05-15T09:18:55.155Z,90.8462
2023-05-15T09:19:56.228Z,94.8462
2023-05-15T09:20:57.326Z,91.3846
2023-05-15T09:21:58.461Z,90.3846
2023-05-15T09:22:59.572Z,89.3077
2023-05-15T09:24:00.668Z,88.7692
2023-05-15T09:25:01.771Z,96.0000
2023-05-15T09:26:02.877Z,98.5385
2023-05-15T09:27:04.097Z,93.9231
2023-05-15T09:28:05.086Z,95.3077
2023-05-15T09:29:06.193Z,92.0000
2023-05-15T09:30:07.288Z,86.3077
2023-05-15T09:31:08.392Z,86.6923
2023-05-15T09:32:09.658Z,87.6154
2023-05-15T09:33:10.660Z,86.0769
2023-05-15T09:34:11.722Z,86.3846
2023-05-15T09:35:12.835Z,89.9231
2023-05-15T09:36:13.943Z,91.0000
2023-05-15T09:37:15.056Z,91.3077
2023-05-15T09:38:16.127Z,87.1538
2023-05-15T09:39:17.260Z,94.4615
2023-05-15T09:40:18.384Z,90.1538
2023-05-15T09:41:19.460Z,87.6154
2023-05-15T09:42:20.600Z,90.6154
2023-05-15T09:43:21.698Z,87.3077
2023-05-15T09:44:22.790Z,88.3846
2023-05-15T09:45:24.079Z,86.0769
2023-05-15T09:46:25.043Z,89.6923
2023-05-15T09:47:26.283Z,87.8462
2023-05-15T09:48:27.232Z,89.6923
2023-05-15T09:49:28.339Z,90.1538
2023-05-15T09:50:29.432Z,84.8462
2023-05-15T09:51:30.550Z,85.3077
2023-05-15T09:52:31.672Z,85.0769
2023-05-15T09:53:32.782Z,80.4615
2023-05-15T09:54:33.868Z,78.0000
2023-05-15T09:55:34.983Z,82.6923
2023-05-15T09:56:36.084Z,79.1538
2023-05-15T09:57:37.196Z,83.0769
2023-05-15T09:58:38.305Z,84.3077
2023-05-15T09:59:39.418Z,83.3846
2023-05-15T10:00:47.702Z,82.0000
2023-05-15T10:01:42.676Z,80.0769
2023-05-15T10:02:42.761Z,82.3077
2023-05-15T10:03:43.865Z,77.4615
2023-05-15T10:04:44.938Z,82.0769
2023-05-15T10:05:46.110Z,82.0000
2023-05-15T10:06:47.149Z,78.3077
2023-05-15T10:07:48.260Z,78.6154
2023-05-15T10:08:49.373Z,81.8462
2023-05-15T10:09:50.488Z,83.9231
2023-05-15T10:10:51.585Z,81.5385
2023-05-15T10:11:52.684Z,83.1538
2023-05-15T10:12:53.818Z,81.1538
2023-05-15T10:13:54.897Z,86.0769
2023-05-15T10:14:56.021Z,90.5385
2023-05-15T10:15:57.138Z,90.0769
2023-05-15T10:16:58.236Z,88.4615
2023-05-15T10:17:59.401Z,85.7692
2023-05-15T10:19:01.389Z,84.4615
2023-05-15T10:20:01.557Z,90.1538
2023-05-15T10:21:02.639Z,84.5385
2023-05-15T10:22:03.750Z,87.5385
2023-05-15T10:23:04.899Z,90.9231
2023-05-15T10:24:05.984Z,83.4615
2023-05-15T10:25:07.087Z,86.6923
2023-05-15T10:26:08.187Z,85.0000
2023-05-15T10:27:09.285Z,89.9231
2023-05-15T10:28:10.416Z,89.3846
2023-05-15T10:29:11.513Z,88.2308
2023-05-15T10:30:12.624Z,89.5385
2023-05-15T10:31:13.769Z,87.7692
2023-05-15T10:32:14.823Z,86.5385
2023-05-15T10:33:16.013Z,93.4615
2023-05-15T10:34:17.053Z,92.7692
2023-05-15T10:35:18.170Z,90.5385
2023-05-15T10:36:19.244Z,92.0769
2023-05-15T10:37:20.364Z,93.0000
2023-05-15T10:38:21.487Z,91.5385
2023-05-15T10:39:22.556Z,93.3077
2023-05-15T10:40:23.850Z,86.0000
2023-05-15T10:41:24.791Z,90.3846
2023-05-15T10:42:25.889Z,92.6154
2023-05-15T10:43:27.003Z,94.6154
2023-05-15T10:44:28.079Z,96.6154
2023-05-15T10:45:29.183Z,92.1538
2023-05-15T10:46:30.290Z,91.4615
2023-05-15T10:47:31.487Z,94.9231
2023-05-15T10:48:32.606Z,91.1538
2023-05-15T10:49:33.691Z,90.4615
2023-05-15T10:50:34.779Z,90.7692
2023-05-15T10:51:35.868Z,91.6923
2023-05-15T10:52:36.982Z,93.5385
2023-05-15T10:53:38.111Z,98.3077
2023-05-15T10:54:39.206Z,95.3846
2023-05-15T10:55:40.330Z,94.7692
2023-05-15T10:56:41.421Z,93.0769
2023-05-15T10:57:42.508Z,89.6923
2023-05-15T10:58:43.645Z,82.7692
2023-05-15T10:59:44.732Z,81.7692
2023-05-15T11:00:45.901Z,85.5385
2023-05-15T11:01:46.974Z,93.0769
2023-05-15T11:02:48.062Z,96.9231
2023-05-15T11:03:50.951Z,93.5385
2023-05-15T11:04:50.420Z,88.6923
2023-05-15T11:05:51.369Z,87.4615
2023-05-15T11:06:52.458Z,90.3077
2023-05-15T11:07:53.583Z,88.7692
2023-05-15T11:08:54.758Z,88.2308
2023-05-15T11:09:55.785Z,85.3077
2023-05-15T11:10:56.895Z,86.8462
2023-05-15T11:11:58.221Z,88.6154
2023-05-15T11:12:59.092Z,89.0000
2023-05-15T11:14:00.204Z,89.1538
2023-05-15T11:15:01.299Z,85.1538
2023-05-15T11:16:02.391Z,89.0769
2023-05-15T11:17:03.547Z,91.3077
2023-05-15T11:18:04.692Z,92.8462
2023-05-15T11:19:05.789Z,96.4615
2023-05-15T11:20:06.814Z,94.0769
2023-05-15T11:21:07.925Z,96.5385
2023-05-15T11:22:09.043Z,93.4615
2023-05-15T11:23:10.134Z,95.0000
2023-05-15T11:24:11.254Z,95.2308
2023-05-15T11:25:12.345Z,97.3846
2023-05-15T11:26:13.447Z,95.4615
2023-05-15T11:27:14.561Z,97.7692
2023-05-15T11:28:15.663Z,100.7692
2023-05-15T11:29:16.835Z,101.3077
2023-05-15T11:30:17.872Z,103.6923
2023-05-15T11:31:18.978Z,98.9231
2023-05-15T11:32:20.074Z,103.0000
2023-05-15T11:33:21.230Z,100.8462
2023-05-15T11:34:22.284Z,101.5385
2023-05-15T11:35:23.399Z,98.1538
2023-05-15T11:36:24.493Z,103.3077
2023-05-15T11:37:25.586Z,102.1538
2023-05-15T11:38:26.712Z,101.6154
2023-05-15T11:39:27.799Z,97.9231
2023-05-15T11:40:29.035Z,98.0769
2023-05-15T11:41:30.018Z,102.3077
2023-05-15T11:42:31.082Z,104.0769
2023-05-15T11:43:32.218Z,107.1538
2023-05-15T11:44:33.318Z,104.3077
2023-05-15T11:45:34.411Z,106.6154
2023-05-15T11:46:35.579Z,103.4615
2023-05-15T11:47:36.641Z,103.7692
2023-05-15T11:48:37.727Z,105.1538
2023-05-15T11:49:38.828Z,99.5385
2023-05-15T11:50:39.913Z,97.7692
2023-05-15T11:51:41.090Z,96.5385
2023-05-15T11:52:42.150Z,100.1538
2023-05-15T11:53:43.240Z,96.6923
2023-05-15T11:54:44.350Z,94.6154
2023-05-15T11:55:45.474Z,92.6154
2023-05-15T11:56:46.536Z,94.1538
2023-05-15T11:57:47.650Z,98.9231
2023-05-15T11:58:48.761Z,93.5385
2023-05-15T11:59:49.872Z,91.4615
2023-05-15T12:00:50.959Z,94.4615
2023-05-15T12:01:52.087Z,91.3846
2023-05-15T12:02:53.234Z,90.7692
2023-05-15T12:03:54.853Z,89.7692
2023-05-15T12:04:55.420Z,92.9231
2023-05-15T12:06:00.035Z,94.5385
2023-05-15T12:06:57.601Z,96.6154
2023-05-15T12:07:58.701Z,91.0000
2023-05-15T12:08:59.807Z,93.7692
2023-05-15T12:10:00.940Z,92.0769
2023-05-15T12:11:02.081Z,93.6154
2023-05-15T12:12:03.120Z,95.3077
2023-05-15T12:13:04.262Z,92.2308
2023-05-15T12:14:05.338Z,91.4615
2023-05-15T12:15:06.462Z,90.6923
2023-05-15T12:16:07.593Z,92.8462
2023-05-15T12:17:08.661Z,91.3846
2023-05-15T12:18:09.760Z,87.6154
2023-05-15T12:19:10.918Z,88.2308